Archival Weather

Chicago O'Hare International

Chicago, Illinois (KORD)

Report from: Sunday, March 19, 2023 12:51 PM CDT
Current time: Friday, June 21, 2024 7:46 PM CDT

Current weather – Weather history – Daily summaries
Weather forecast

Temperature1.7°C (35.1°F)
Wind chill-3.1°C (26.4°F)
Dew point-12.2°C (10.0°F)
Winds 11 kts (5.7 m/s, 12.7 mph) West-Southwest (250°)
Wind gusts 22 kts (11.3 m/s, 25.3 mph)
Visibility10 mi. (16.1 km)
Clouds Sky clear
Altimeter30.27 in.Hg (1025 mB)
Relative humidity35 %
Density altitude-2,001 ft. (-610 m)
Sea-level pressure102.6 kPa (1026 mB, 30.29 in.Hg)
Max temp last 6 hours1.7°C (35.1°F)
Min temp last 6 hours-7.2°C (19.0°F)
Remarks System requires maintenance
Automated weather observing station with precipitation discriminator
Pressure falling more quickly
Flight conditions Visual Meteorological Conditions
Raw dataKORD 191751Z 25011G22KT 10SM CLR 02/M12 A3027 RMK AO2 SLP258 T00171122 10017 21072 58005 $
An error has occurred. This application may no longer respond until reloaded. Reload 🗙